GCXO/TFN METAR and TAF weather

Enter ICAO airport designator
Station Type Date Time Source
GCXO METAR 2019/03/21 04:00 UTC NOAA

GCXO 210400Z AUTO 26006KT CAVOK 11/09 Q1017


Station Type Date Time Source
GCXO Decoded METAR 2019/03/21 04:00 UTC NOAA

Tenerife / Los Rodeos, Spain (GCXO) 28-28N 016-19W 617M
Mar 21, 2019 - 12:00 AM EDT / 2019.03.21 0400 UTC
Wind: from the W (260 degrees) at 7 MPH (6 KT):0
Visibility: greater than 7 mile(s):0
Temperature: 51 F (11 C)
Dew Point: 48 F (9 C)
Relative Humidity: 87%
Pressure (altimeter): 30.03 in. Hg (1017 hPa)
ob: GCXO 210400Z AUTO 26006KT CAVOK 11/09 Q1017
cycle: 4

Station Type Date Time Source
GCXO TAF 2019/03/21 03:27 UTC NOAA

TAF GCXO 210200Z 2103/2203 13006KT 9999 FEW015 TX17/2114Z TN11/2106Z
TEMPO 2103/2109 27010KT PROB30
TEMPO 2103/2107 4900 BCFG BKN009

Example: see airport list